Diane H — WUR7250 — position and weather

sailwx.info

Track history (hours):
 
Tides and Currents Weather Stations Pressure Air Temp Water Temp Dewpoint Dewpoint Depression Visibility Wind Speed Wind Dir Waves Ship Positions

Diane H

Owner: BOYER TOWING INC, KETCHIKAN, AK. More information available from US FCC via Universal Licensing System and Coast Guard Vessel Documentation Center.

Last reported at 2015-May-06 18:27 UTC. Time now 2015-May-06 19:33 UTC.
Position N 50°40' W 126°51'.

Type: Towing. MMSI: 366673090.

Date/timePositionNaut miles runAvg speedWind from/ knotsBaromVisibWave heightAir tempDewpointWater temp
2015-May-06 18:27N 50°40' W 126°51'7 7.0
2015-May-06 17:31N 50°36' W 126°43'8 7.8
2015-May-06 16:32N 50°31' W 126°34'16 8.0
2015-May-06 14:31N 50°28' W 126°09'50 5.9
2015-May-06 06:10N 49°57' W 125°09'2 3.4
2015-May-06 05:32N 49°56' W 125°06'4 4.0
2015-May-06 04:31N 49°53' W 125°01'30 4.3
2015-May-05 21:27N 49°35' W 124°24'7 7.5
2015-May-05 20:31N 49°32' W 124°14'7 7.1
2015-May-05 19:33N 49°27' W 124°06'10 7.3
2015-May-05 18:10N 49°21' W 123°53'4 6.7
2015-May-05 17:31N 49°18' W 123°48'6 6.6
2015-May-05 16:33N 49°14' W 123°40'7 6.7
2015-May-05 15:33N 49°10' W 123°32'7 7.2
2015-May-05 14:33N 49°06' W 123°24'8 7.5
2015-May-05 13:32N 49°01' W 123°15'7 7.5
2015-May-05 12:33N 48°56' W 123°07'8 7.8
2015-May-05 11:33N 48°51' W 122°57'8 8.0
2015-May-05 10:32N 48°46' W 122°47'7 7.4
2015-May-05 09:33N 48°39' W 122°43'7 7.1
2015-May-05 08:33N 48°33' W 122°45'10 7.0
2015-May-05 07:04N 48°22' W 122°44'20 7.2
2015-May-05 04:14N 48°02' W 122°37'6 8.9
2015-May-05 03:33N 47°57' W 122°33'7 7.1
2015-May-05 02:33N 47°51' W 122°27'1 6.8
2015-May-05 02:21N 47°50' W 122°27'6 7.3
2015-May-05 01:33N 47°44' W 122°26'0 5.8
2015-May-05 01:32N 47°44' W 122°26'7 6.8
2015-May-05 00:33N 47°37' W 122°25'1 5.7
2015-May-05 00:27N 47°37' W 122°24'1 1.5
2015-May-04 23:33N 47°36' W 122°22'0 2.6
2015-May-04 23:31N 47°36' W 122°22'4 2.9
2015-May-04 22:15N 47°33' W 122°20'0 0.5
2015-May-04 21:26N 47°32' W 122°20'0 0.0
2015-May-04 20:18N 47°32' W 122°20'  
2015-Apr-30 21:31N 47°32' W 122°20'0 1.2
2015-Apr-30 21:30N 47°32' W 122°20'3 3.0
2015-Apr-30 20:28N 47°35' W 122°21'0 0.0
2015-Apr-30 20:28N 47°35' W 122°21'0 0.0
2015-Apr-30 19:31N 47°35' W 122°21'0 0.0
2015-Apr-30 19:28N 47°35' W 122°21'1 1.3
2015-Apr-30 18:32N 47°34' W 122°21'0 2.2
2015-Apr-30 18:23N 47°34' W 122°21'  
Track history (hours):
 
Tides and Currents Weather Stations Pressure Air Temp Water Temp Dewpoint Dewpoint Depression Visibility Wind Speed Wind Dir Waves Ship Positions

Diane H

Owner: BOYER TOWING INC, KETCHIKAN, AK. More information available from US FCC via Universal Licensing System and Coast Guard Vessel Documentation Center.

Last reported at 2015-May-06 18:27 UTC. Time now 2015-May-06 19:33 UTC.
Position N 50°40' W 126°51'.

Type: Towing. MMSI: 366673090.

Date/timePositionNaut miles runAvg speedWind from/ knotsBaromVisibWave heightAir tempDewpointWater temp
2015-May-06 18:27N 50°40' W 126°51'7 7.0
2015-May-06 17:31N 50°36' W 126°43'8 7.8
2015-May-06 16:32N 50°31' W 126°34'16 8.0
2015-May-06 14:31N 50°28' W 126°09'50 5.9
2015-May-06 06:10N 49°57' W 125°09'2 3.4
2015-May-06 05:32N 49°56' W 125°06'4 4.0
2015-May-06 04:31N 49°53' W 125°01'30 4.3
2015-May-05 21:27N 49°35' W 124°24'7 7.5
2015-May-05 20:31N 49°32' W 124°14'7 7.1
2015-May-05 19:33N 49°27' W 124°06'10 7.3
2015-May-05 18:10N 49°21' W 123°53'4 6.7
2015-May-05 17:31N 49°18' W 123°48'6 6.6
2015-May-05 16:33N 49°14' W 123°40'7 6.7
2015-May-05 15:33N 49°10' W 123°32'7 7.2
2015-May-05 14:33N 49°06' W 123°24'8 7.5
2015-May-05 13:32N 49°01' W 123°15'7 7.5
2015-May-05 12:33N 48°56' W 123°07'8 7.8
2015-May-05 11:33N 48°51' W 122°57'8 8.0
2015-May-05 10:32N 48°46' W 122°47'7 7.4
2015-May-05 09:33N 48°39' W 122°43'7 7.1
2015-May-05 08:33N 48°33' W 122°45'10 7.0
2015-May-05 07:04N 48°22' W 122°44'20 7.2
2015-May-05 04:14N 48°02' W 122°37'6 8.9
2015-May-05 03:33N 47°57' W 122°33'7 7.1
2015-May-05 02:33N 47°51' W 122°27'1 6.8
2015-May-05 02:21N 47°50' W 122°27'6 7.3
2015-May-05 01:33N 47°44' W 122°26'0 5.8
2015-May-05 01:32N 47°44' W 122°26'7 6.8
2015-May-05 00:33N 47°37' W 122°25'1 5.7
2015-May-05 00:27N 47°37' W 122°24'1 1.5
2015-May-04 23:33N 47°36' W 122°22'0 2.6
2015-May-04 23:31N 47°36' W 122°22'4 2.9
2015-May-04 22:15N 47°33' W 122°20'0 0.5
2015-May-04 21:26N 47°32' W 122°20'0 0.0
2015-May-04 20:18N 47°32' W 122°20'  
2015-Apr-30 21:31N 47°32' W 122°20'0 1.2
2015-Apr-30 21:30N 47°32' W 122°20'3 3.0
2015-Apr-30 20:28N 47°35' W 122°21'0 0.0
2015-Apr-30 20:28N 47°35' W 122°21'0 0.0
2015-Apr-30 19:31N 47°35' W 122°21'0 0.0
2015-Apr-30 19:28N 47°35' W 122°21'1 1.3
2015-Apr-30 18:32N 47°34' W 122°21'0 2.2
2015-Apr-30 18:23N 47°34' W 122°21'  

Dump ship's entire track history